createdAt,value
2018-08-04T00:02:37.628Z,7.03
2018-08-04T00:06:45.909Z,5.70
2018-08-04T00:10:54.217Z,5.90
2018-08-04T00:15:04.355Z,5.07
2018-08-04T00:19:12.638Z,7.55
2018-08-04T00:23:21.100Z,8.63
2018-08-04T00:27:29.392Z,6.50
2018-08-04T00:31:37.839Z,4.90
2018-08-04T00:35:46.109Z,10.60
2018-08-04T00:39:54.755Z,7.27
2018-08-04T00:44:03.418Z,7.33
2018-08-04T00:48:11.705Z,6.73
2018-08-04T00:52:20.039Z,5.30
2018-08-04T00:56:28.334Z,11.27
2018-08-04T01:00:36.818Z,7.47
2018-08-04T01:04:45.116Z,5.30
2018-08-04T01:08:53.500Z,6.50
2018-08-04T01:13:03.430Z,5.37
2018-08-04T01:17:11.709Z,10.97
2018-08-04T01:21:20.190Z,8.90
2018-08-04T01:25:28.443Z,6.13
2018-08-04T01:29:37.055Z,5.13
2018-08-04T01:33:49.087Z,4.90
2018-08-04T01:37:57.504Z,6.90
2018-08-04T01:42:06.265Z,5.67
2018-08-04T01:46:14.544Z,4.00
2018-08-04T01:50:23.009Z,5.50
2018-08-04T01:54:32.437Z,5.50
2018-08-04T01:58:40.429Z,6.53
2018-08-04T02:02:48.713Z,5.10
2018-08-04T02:06:57.863Z,5.60
2018-08-04T02:11:06.979Z,3.90
2018-08-04T02:15:15.306Z,5.97
2018-08-04T02:19:23.820Z,4.27
2018-08-04T02:23:33.544Z,4.30
2018-08-04T02:27:41.808Z,6.33
2018-08-04T02:31:50.163Z,5.53
2018-08-04T02:35:58.520Z,4.30
2018-08-04T02:40:07.340Z,5.80
2018-08-04T02:44:15.375Z,5.43
2018-08-04T02:48:24.137Z,5.23
2018-08-04T02:52:33.702Z,4.00
2018-08-04T02:56:43.000Z,5.50
2018-08-04T03:00:51.490Z,4.80
2018-08-04T03:05:00.600Z,4.03
2018-08-04T03:09:10.643Z,6.60
2018-08-04T03:13:19.054Z,6.10
2018-08-04T03:17:28.358Z,3.90
2018-08-04T03:21:36.964Z,4.63
2018-08-04T03:25:45.229Z,7.07
2018-08-04T03:29:53.550Z,3.87
2018-08-04T03:34:03.086Z,5.40
2018-08-04T03:38:11.363Z,4.17
2018-08-04T03:42:19.646Z,4.97
2018-08-04T03:46:28.832Z,4.73
2018-08-04T03:50:37.136Z,4.63
2018-08-04T03:54:45.370Z,3.87
2018-08-04T03:58:53.637Z,5.27
2018-08-04T04:03:02.977Z,4.83
2018-08-04T04:07:11.225Z,6.00
2018-08-04T04:11:19.494Z,5.00
2018-08-04T04:15:28.768Z,6.00
2018-08-04T04:19:37.017Z,6.90
2018-08-04T04:23:45.283Z,8.63
2018-08-04T04:27:53.538Z,6.47
2018-08-04T04:32:03.076Z,7.67
2018-08-04T04:36:11.375Z,4.70
2018-08-04T04:40:19.628Z,5.43
2018-08-04T04:44:29.040Z,4.93
2018-08-04T04:48:37.361Z,4.53
2018-08-04T04:52:45.576Z,4.80
2018-08-04T04:56:53.878Z,5.65
2018-08-04T05:01:03.250Z,7.80
2018-08-04T05:05:11.516Z,6.17
2018-08-04T05:09:19.846Z,4.95
2018-08-04T05:13:29.365Z,4.60
2018-08-04T05:17:37.666Z,5.03
2018-08-04T05:21:46.368Z,7.07
2018-08-04T05:25:54.613Z,5.00
2018-08-04T05:30:02.883Z,6.08
2018-08-04T05:34:11.126Z,4.83
2018-08-04T05:38:19.383Z,4.80
2018-08-04T05:42:28.551Z,5.30
2018-08-04T05:46:36.784Z,5.23
2018-08-04T05:50:45.094Z,4.30
2018-08-04T05:54:53.329Z,6.03
2018-08-04T05:59:02.565Z,4.87
2018-08-04T06:03:10.853Z,6.47
2018-08-04T06:07:19.076Z,6.60
2018-08-04T06:11:28.410Z,6.00
2018-08-04T06:15:36.689Z,5.00
2018-08-04T06:19:44.923Z,6.20
2018-08-04T06:23:53.164Z,7.40
2018-08-04T06:28:02.379Z,6.13
2018-08-04T06:32:10.648Z,4.80
2018-08-04T06:36:18.912Z,4.90
2018-08-04T06:40:27.794Z,5.00
2018-08-04T06:44:36.078Z,5.30
2018-08-04T06:48:46.166Z,4.83
2018-08-04T06:52:54.456Z,5.87
2018-08-04T06:57:05.229Z,6.30
2018-08-04T07:01:13.485Z,4.63
2018-08-04T07:05:21.756Z,4.33
2018-08-04T07:09:31.000Z,4.53
2018-08-04T07:13:39.293Z,5.60
2018-08-04T07:17:47.564Z,5.60
2018-08-04T07:21:56.821Z,4.50
2018-08-04T07:26:05.080Z,5.57
2018-08-04T07:30:14.512Z,4.40
2018-08-04T07:34:22.857Z,7.50
2018-08-04T07:38:32.263Z,4.50
2018-08-04T07:42:40.683Z,5.83
2018-08-04T07:46:48.982Z,4.70
2018-08-04T07:50:58.374Z,8.63
2018-08-04T07:55:06.776Z,4.53
2018-08-04T07:59:15.113Z,5.87
2018-08-04T08:03:23.360Z,6.23
2018-08-04T08:07:32.560Z,6.07
2018-08-04T08:11:40.811Z,7.53
2018-08-04T08:15:48.814Z,2.97
2018-08-04T08:19:57.056Z,4.80
2018-08-04T08:24:05.360Z,6.20
2018-08-04T08:28:13.580Z,4.43
2018-08-04T08:32:21.875Z,5.80
2018-08-04T08:36:30.139Z,4.30
2018-08-04T08:40:38.381Z,3.50
2018-08-04T08:44:46.597Z,7.57
2018-08-04T08:48:55.908Z,5.00
2018-08-04T08:53:04.202Z,3.60
2018-08-04T08:57:12.473Z,3.57
2018-08-04T09:01:20.740Z,3.47
2018-08-04T09:05:28.952Z,6.30
2018-08-04T09:09:37.231Z,5.87
2018-08-04T09:13:46.411Z,3.10
2018-08-04T09:17:54.693Z,3.77
2018-08-04T09:22:02.928Z,3.00
2018-08-04T09:26:11.197Z,3.63
2018-08-04T09:30:19.492Z,3.50
2018-08-04T09:34:27.895Z,5.40
2018-08-04T09:38:36.191Z,3.77
2018-08-04T09:42:46.448Z,3.30
2018-08-04T09:46:54.825Z,4.63
2018-08-04T09:51:03.101Z,3.30
2018-08-04T09:55:12.002Z,3.83
2018-08-04T09:59:20.346Z,3.73
2018-08-04T10:03:28.631Z,5.37
2018-08-04T10:07:38.029Z,3.77
2018-08-04T10:11:47.162Z,4.27
2018-08-04T10:15:55.453Z,3.50
2018-08-04T10:20:03.808Z,3.10
2018-08-04T10:24:12.486Z,3.57
2018-08-04T10:28:20.740Z,5.17
2018-08-04T10:32:29.055Z,6.43
2018-08-04T10:36:37.258Z,4.87
2018-08-04T10:40:45.499Z,4.83
2018-08-04T10:44:53.747Z,3.43
2018-08-04T10:49:02.011Z,6.43
2018-08-04T10:53:10.333Z,3.60
2018-08-04T10:57:18.588Z,3.60
2018-08-04T11:01:27.002Z,3.50
2018-08-04T11:05:35.287Z,3.90
2018-08-04T11:09:43.649Z,3.30
2018-08-04T11:13:52.024Z,4.07
2018-08-04T11:18:01.522Z,3.43
2018-08-04T11:22:09.782Z,3.40
2018-08-04T11:26:18.054Z,8.38
2018-08-04T11:30:26.314Z,3.50
2018-08-04T11:34:35.184Z,4.80
2018-08-04T11:38:43.426Z,3.50
2018-08-04T11:42:51.892Z,5.67
2018-08-04T11:47:01.292Z,4.27
2018-08-04T11:51:09.756Z,3.47
2018-08-04T11:55:18.041Z,4.67
2018-08-04T11:59:27.733Z,3.67
2018-08-04T12:03:36.000Z,3.60
2018-08-04T12:07:44.323Z,3.20
2018-08-04T12:11:52.624Z,3.37
2018-08-04T12:16:01.998Z,3.63
2018-08-04T12:20:10.301Z,3.60
2018-08-04T12:24:18.542Z,3.73
2018-08-04T12:28:26.788Z,3.97
2018-08-04T12:32:35.083Z,5.20
2018-08-04T12:36:43.350Z,4.53
2018-08-04T12:40:51.621Z,7.03
2018-08-04T12:45:00.791Z,7.17
2018-08-04T12:49:09.045Z,4.27
2018-08-04T12:53:17.353Z,4.73
2018-08-04T12:57:25.574Z,6.00
2018-08-04T13:01:33.840Z,4.53
2018-08-04T13:05:42.094Z,4.50
2018-08-04T13:09:50.370Z,4.73
2018-08-04T13:13:59.952Z,3.47
2018-08-04T13:18:08.200Z,3.67
2018-08-04T13:22:16.473Z,3.50
2018-08-04T13:26:24.720Z,3.53
2018-08-04T13:30:33.104Z,3.20
2018-08-04T13:34:41.375Z,4.30
2018-08-04T13:38:49.746Z,4.50
2018-08-04T13:42:58.829Z,4.53
2018-08-04T13:47:07.105Z,3.17
2018-08-04T13:51:15.356Z,3.60
2018-08-04T13:55:23.637Z,3.57
2018-08-04T13:59:32.386Z,3.23
2018-08-04T14:03:40.643Z,5.47
2018-08-04T14:07:48.912Z,3.20
2018-08-04T14:11:57.844Z,5.73
2018-08-04T14:16:06.472Z,3.93
2018-08-04T14:20:15.866Z,3.67
2018-08-04T14:24:24.175Z,3.77
2018-08-04T14:28:32.523Z,3.67
2018-08-04T14:32:40.759Z,2.83
2018-08-04T14:36:48.814Z,3.60
2018-08-04T14:40:57.855Z,3.30
2018-08-04T14:45:06.120Z,5.30
2018-08-04T14:49:15.434Z,3.10
2018-08-04T14:53:23.719Z,5.07
2018-08-04T14:57:32.009Z,3.10
2018-08-04T15:01:40.256Z,3.23
2018-08-04T15:05:48.522Z,4.30
2018-08-04T15:09:56.788Z,3.93
2018-08-04T15:14:07.108Z,3.63
2018-08-04T15:18:15.356Z,4.73
2018-08-04T15:22:23.688Z,3.20
2018-08-04T15:26:32.432Z,3.20
2018-08-04T15:30:40.722Z,3.10
2018-08-04T15:34:49.003Z,2.93
2018-08-04T15:38:57.814Z,3.50
2018-08-04T15:43:06.250Z,3.50
2018-08-04T15:47:14.520Z,3.80
2018-08-04T15:51:22.872Z,4.90
2018-08-04T15:55:31.613Z,2.92
2018-08-04T15:59:39.856Z,4.60
2018-08-04T16:03:47.884Z,3.10
2018-08-04T16:07:56.178Z,3.47
2018-08-04T16:12:04.523Z,3.90
2018-08-04T16:16:12.790Z,3.90
2018-08-04T16:20:21.211Z,4.37
2018-08-04T16:24:31.596Z,4.30
2018-08-04T16:28:39.784Z,5.53
2018-08-04T16:32:47.843Z,4.07
2018-08-04T16:36:56.092Z,5.80
2018-08-04T16:41:04.357Z,6.93
2018-08-04T16:45:12.627Z,4.77
2018-08-04T16:49:20.925Z,5.90
2018-08-04T16:53:31.322Z,4.43
2018-08-04T16:57:39.532Z,3.97
2018-08-04T17:01:47.816Z,4.00
2018-08-04T17:05:56.083Z,6.63
2018-08-04T17:10:04.361Z,6.53
2018-08-04T17:14:12.611Z,7.80
2018-08-04T17:18:20.875Z,5.00
2018-08-04T17:22:30.792Z,5.43
2018-08-04T17:26:39.076Z,4.30
2018-08-04T17:30:47.343Z,5.60
2018-08-04T17:34:58.854Z,7.03
2018-08-04T17:39:08.321Z,3.83
2018-08-04T17:43:16.560Z,5.30
2018-08-04T17:47:25.898Z,5.37
2018-08-04T17:51:34.187Z,4.37
2018-08-04T17:55:42.454Z,5.00
2018-08-04T17:59:50.742Z,5.07
2018-08-04T18:04:00.711Z,3.77
2018-08-04T18:08:08.963Z,4.77
2018-08-04T18:12:17.240Z,7.93
2018-08-04T18:16:25.508Z,5.90
2018-08-04T18:20:33.775Z,5.83
2018-08-04T18:24:42.065Z,7.90
2018-08-04T18:28:50.332Z,7.70
2018-08-04T18:33:00.174Z,4.60
2018-08-04T18:37:08.447Z,3.67
2018-08-04T18:41:16.738Z,3.47
2018-08-04T18:45:24.990Z,3.10
2018-08-04T18:49:33.258Z,5.27
2018-08-04T18:53:41.501Z,4.57
2018-08-04T18:57:49.801Z,4.13
2018-08-04T19:02:00.202Z,3.50
2018-08-04T19:06:08.436Z,4.97
2018-08-04T19:10:16.773Z,4.00
2018-08-04T19:14:25.000Z,3.13
2018-08-04T19:18:33.283Z,3.50
2018-08-04T19:22:41.542Z,3.47
2018-08-04T19:26:49.804Z,5.53
2018-08-04T19:30:59.970Z,8.00
2018-08-04T19:35:08.288Z,3.67
2018-08-04T19:39:16.569Z,3.90
2018-08-04T19:43:24.820Z,5.63
2018-08-04T19:47:33.077Z,6.83
2018-08-04T19:51:41.328Z,3.67
2018-08-04T19:55:49.559Z,6.20
2018-08-04T19:59:58.926Z,4.07
2018-08-04T20:04:07.181Z,4.07
2018-08-04T20:08:15.426Z,6.37
2018-08-04T20:12:23.662Z,4.60
2018-08-04T20:16:32.096Z,5.03
2018-08-04T20:20:40.371Z,9.00
2018-08-04T20:24:48.651Z,4.20
2018-08-04T20:28:56.897Z,6.10
2018-08-04T20:33:05.212Z,6.33
2018-08-04T20:37:13.468Z,6.33
2018-08-04T20:41:21.744Z,7.83
2018-08-04T20:45:31.370Z,5.70
2018-08-04T20:49:39.629Z,4.90
2018-08-04T20:53:47.876Z,6.43
2018-08-04T20:57:56.096Z,5.60
2018-08-04T21:02:05.077Z,5.57
2018-08-04T21:06:14.401Z,5.83
2018-08-04T21:10:22.618Z,6.07
2018-08-04T21:14:31.873Z,6.03
2018-08-04T21:18:40.121Z,5.83
2018-08-04T21:22:48.402Z,5.50
2018-08-04T21:26:56.740Z,5.83
2018-08-04T21:31:05.047Z,6.83
2018-08-04T21:35:13.328Z,6.90
2018-08-04T21:39:21.618Z,7.80
2018-08-04T21:43:31.370Z,6.97
2018-08-04T21:47:39.650Z,6.83
2018-08-04T21:51:50.069Z,9.70
2018-08-04T21:55:59.478Z,8.67
2018-08-04T22:00:11.814Z,7.30
2018-08-04T22:04:20.085Z,8.13
2018-08-04T22:08:39.683Z,8.90
2018-08-04T22:12:47.988Z,12.00
2018-08-04T22:17:02.380Z,12.50
2018-08-04T22:21:10.686Z,12.10
2018-08-04T22:25:22.274Z,18.03
2018-08-04T22:29:31.952Z,13.17
2018-08-04T22:33:40.248Z,13.80
2018-08-04T22:37:48.563Z,15.97
2018-08-04T22:41:56.815Z,15.83
2018-08-04T22:46:08.464Z,18.13
2018-08-04T22:50:16.728Z,14.90
2018-08-04T22:54:24.991Z,14.33
2018-08-04T22:58:33.279Z,15.03
2018-08-04T23:02:41.536Z,16.50
2018-08-04T23:06:49.761Z,17.97
2018-08-04T23:10:59.849Z,18.93
2018-08-04T23:15:08.151Z,13.63
2018-08-04T23:19:16.437Z,14.97
2018-08-04T23:23:24.700Z,12.93
2018-08-04T23:27:32.983Z,12.37
2018-08-04T23:31:41.258Z,13.47
2018-08-04T23:35:49.504Z,12.90
2018-08-04T23:39:58.934Z,11.57
2018-08-04T23:44:07.193Z,19.13
2018-08-04T23:48:15.466Z,11.50
2018-08-04T23:52:23.956Z,10.87
2018-08-04T23:56:32.272Z,11.10
